< < Back
Terminal Aerodrome Forecast


Current Version              Previous Versions:   1  2  3  4  5  6  7  8  9  

Terminal Aerodrome Forecast

572
FTUS44 KOHX 302322
TAFCSV
TAF
KCSV 302322Z 0100/0124 24005KT P6SM SKC
     FM010100 VRB03KT P6SM SCT250
     FM010800 00000KT 4SM BR SCT250
     FM011200 22005KT P6SM SCT040 BKN250
     FM011800 27009KT P6SM VCTS BKN050CB=



Latest METAR

981
SAUS70 KWBC 010100 RRP
MTRCSV
METAR KCSV 010053Z AUTO 17003KT 9SM SCT030 BKN035 BKN085 22/19 A2999 RMK
AO2 SLP135 T02220189


USA.gov is the U.S. government's official web portal to all federal, state and local government web resources and services.